Gracewood, Georgia
Current Conditions -  °F | °C
As of 2:53 AM on Thursday 27 Nov 2014 (Local Time) from KAGS Reporting Station
Clear Clear  
Wind Chill: 37°   Ceiling: Unl
Heat Index: 42°   Visibility: 10mi
Dew Point: 31°   Wind: 8mph
Humidity: 65%   Direction: 230°SW
Pressure: 30.08"   Gusts: NA
Location:  33.37°N, 82.03°W
Report Text: KAGS 270753Z AUTO 23007KT 10SM CLR 06/M01 A3008 RMK AO2 SLP184 T00561006
Loading
Personal Weather Stations






























Interactive Weather Map New forecast layout! Learn more

10-Day Weather Forecast

Advertisements
Track Severe Weather on mobile